createdAt,value
2019-04-07T00:01:27.544Z,11.41
2019-04-07T00:04:01.765Z,11.29
2019-04-07T00:06:36.147Z,11.27
2019-04-07T00:09:10.024Z,11.26
2019-04-07T00:11:43.211Z,11.28
2019-04-07T00:14:18.522Z,11.23
2019-04-07T00:16:51.813Z,11.25
2019-04-07T00:19:25.122Z,11.27
2019-04-07T00:21:58.274Z,11.21
2019-04-07T00:24:31.469Z,11.14
2019-04-07T00:27:04.584Z,11.10
2019-04-07T00:29:37.926Z,11.03
2019-04-07T00:32:11.147Z,11.09
2019-04-07T00:34:45.721Z,10.97
2019-04-07T00:37:18.891Z,10.93
2019-04-07T00:39:52.174Z,10.83
2019-04-07T00:42:25.900Z,10.84
2019-04-07T00:44:59.724Z,10.84
2019-04-07T00:47:32.908Z,10.84
2019-04-07T00:50:07.640Z,10.75
2019-04-07T00:52:40.743Z,10.74
2019-04-07T00:55:14.213Z,10.73
2019-04-07T00:57:47.364Z,10.70
2019-04-07T01:00:22.040Z,10.69
2019-04-07T01:02:55.293Z,10.63
2019-04-07T01:05:36.654Z,10.59
2019-04-07T01:08:05.269Z,10.50
2019-04-07T01:10:38.440Z,10.49
2019-04-07T01:13:12.329Z,10.51
2019-04-07T01:15:46.019Z,10.51
2019-04-07T01:18:19.601Z,10.47
2019-04-07T01:20:53.878Z,10.35
2019-04-07T01:23:28.218Z,10.30
2019-04-07T01:26:02.183Z,10.21
2019-04-07T01:28:35.470Z,10.15
2019-04-07T01:31:08.874Z,10.16
2019-04-07T01:33:44.272Z,10.07
2019-04-07T01:36:17.523Z,10.11
2019-04-07T01:38:51.155Z,10.04
2019-04-07T01:41:51.576Z,10.01
2019-04-07T01:44:30.876Z,9.91
2019-04-07T01:47:32.081Z,9.76
2019-04-07T01:50:33.910Z,9.64
2019-04-07T01:53:22.807Z,9.64
2019-04-07T01:56:21.034Z,9.64
2019-04-07T01:59:00.578Z,9.65
2019-04-07T02:01:56.149Z,9.69
2019-04-07T02:04:38.907Z,9.57
2019-04-07T02:07:43.609Z,9.52
2019-04-07T02:10:30.625Z,9.50
2019-04-07T02:13:37.854Z,9.56
2019-04-07T02:16:42.272Z,9.54
2019-04-07T02:19:34.459Z,9.52
2019-04-07T02:22:33.324Z,9.49
2019-04-07T02:25:25.218Z,9.48
2019-04-07T02:28:20.384Z,9.40
2019-04-07T02:31:09.760Z,9.48
2019-04-07T02:34:01.774Z,9.38
2019-04-07T02:36:54.006Z,9.33
2019-04-07T02:39:58.819Z,9.28
2019-04-07T02:43:00.880Z,9.31
2019-04-07T02:45:52.390Z,9.29
2019-04-07T02:48:48.891Z,9.29
2019-04-07T02:51:33.810Z,9.26
2019-04-07T02:54:38.174Z,9.22
2019-04-07T02:57:26.850Z,9.20
2019-04-07T03:00:16.610Z,9.22
2019-04-07T03:03:01.573Z,9.20
2019-04-07T03:05:48.186Z,9.24
2019-04-07T03:08:39.628Z,9.26
2019-04-07T03:11:35.347Z,9.31
2019-04-07T03:14:43.727Z,9.30
2019-04-07T03:17:36.636Z,9.30
2019-04-07T03:20:20.057Z,9.28
2019-04-07T03:23:07.250Z,9.19
2019-04-07T03:26:05.817Z,9.14
2019-04-07T03:28:57.956Z,9.10
2019-04-07T03:32:06.346Z,9.06
2019-04-07T03:35:12.422Z,9.05
2019-04-07T03:38:04.559Z,9.07
2019-04-07T03:41:03.798Z,9.00
2019-04-07T03:43:55.778Z,8.98
2019-04-07T03:46:50.869Z,8.94
2019-04-07T03:49:29.550Z,8.87
2019-04-07T03:52:13.617Z,8.82
2019-04-07T03:55:11.367Z,8.77
2019-04-07T03:58:02.398Z,8.74
2019-04-07T04:01:33.691Z,8.74
2019-04-07T04:04:29.987Z,8.72
2019-04-07T04:07:20.628Z,8.67
2019-04-07T04:09:47.423Z,8.65
2019-04-07T04:12:31.706Z,8.67
2019-04-07T04:15:33.974Z,8.64
2019-04-07T04:18:08.116Z,8.57
2019-04-07T04:20:41.351Z,8.63
2019-04-07T04:23:14.551Z,8.69
2019-04-07T04:25:47.757Z,8.64
2019-04-07T04:28:21.865Z,8.63
2019-04-07T04:30:56.520Z,8.67
2019-04-07T04:33:31.066Z,8.66
2019-04-07T04:36:04.395Z,8.64
2019-04-07T04:38:38.522Z,8.69
2019-04-07T04:41:12.021Z,8.78
2019-04-07T04:43:45.471Z,8.91
2019-04-07T04:46:18.872Z,8.98
2019-04-07T04:48:52.496Z,9.00
2019-04-07T04:51:28.163Z,8.99
2019-04-07T04:54:03.836Z,8.85
2019-04-07T04:56:37.763Z,8.79
2019-04-07T04:59:12.839Z,8.73
2019-04-07T05:01:46.417Z,8.72
2019-04-07T05:04:20.637Z,8.75
2019-04-07T05:06:54.853Z,8.82
2019-04-07T05:09:40.216Z,8.83
2019-04-07T05:12:05.053Z,8.81
2019-04-07T05:14:38.926Z,8.81
2019-04-07T05:17:13.329Z,8.80
2019-04-07T05:19:46.825Z,8.96
2019-04-07T05:22:20.368Z,9.10
2019-04-07T05:24:53.629Z,9.28
2019-04-07T05:27:27.573Z,9.40
2019-04-07T05:30:01.193Z,9.51
2019-04-07T05:32:34.434Z,9.74
2019-04-07T05:35:08.901Z,9.89
2019-04-07T05:37:42.538Z,10.01
2019-04-07T05:40:16.766Z,10.25
2019-04-07T05:42:49.973Z,10.35
2019-04-07T05:45:23.785Z,10.41
2019-04-07T05:47:57.855Z,10.56
2019-04-07T05:50:31.819Z,10.65
2019-04-07T05:53:06.806Z,10.60
2019-04-07T05:55:39.852Z,10.81
2019-04-07T05:58:15.330Z,11.02
2019-04-07T06:00:49.402Z,11.11
2019-04-07T06:03:23.829Z,11.09
2019-04-07T06:05:57.887Z,11.04
2019-04-07T06:08:37.694Z,11.21
2019-04-07T06:11:06.232Z,11.39
2019-04-07T06:13:43.865Z,11.56
2019-04-07T06:16:15.603Z,11.74
2019-04-07T06:18:48.788Z,11.88
2019-04-07T06:21:22.225Z,12.02
2019-04-07T06:23:59.840Z,12.15
2019-04-07T06:26:34.196Z,12.39
2019-04-07T06:29:19.991Z,12.46
2019-04-07T06:31:57.735Z,12.56
2019-04-07T06:34:34.322Z,12.79
2019-04-07T06:37:10.893Z,12.79
2019-04-07T06:39:49.380Z,13.13
2019-04-07T06:42:20.880Z,13.33
2019-04-07T06:44:54.321Z,13.53
2019-04-07T06:47:32.893Z,13.81
2019-04-07T06:50:16.845Z,13.98
2019-04-07T06:53:17.563Z,14.22
2019-04-07T06:56:04.111Z,14.43
2019-04-07T06:58:59.433Z,14.50
2019-04-07T07:01:50.761Z,14.61
2019-04-07T07:04:46.584Z,14.98
2019-04-07T07:07:49.753Z,15.38
2019-04-07T07:10:54.182Z,15.57
2019-04-07T07:14:06.082Z,15.26
2019-04-07T07:17:03.972Z,15.17
2019-04-07T07:19:57.370Z,15.15
2019-04-07T07:22:55.205Z,15.34
2019-04-07T07:25:29.864Z,15.38
2019-04-07T07:28:03.344Z,15.69
2019-04-07T07:30:37.146Z,15.88
2019-04-07T07:33:11.186Z,15.67
2019-04-07T07:35:48.209Z,15.76
2019-04-07T07:38:20.354Z,16.03
2019-04-07T07:40:53.576Z,16.10
2019-04-07T07:43:29.539Z,15.95
2019-04-07T07:46:03.426Z,16.02
2019-04-07T07:48:37.732Z,15.98
2019-04-07T07:51:13.265Z,16.35
2019-04-07T07:53:46.130Z,16.46
2019-04-07T07:56:19.268Z,16.50
2019-04-07T07:58:53.014Z,16.61
2019-04-07T08:01:26.973Z,16.65
2019-04-07T08:04:00.737Z,16.60
2019-04-07T08:06:34.657Z,16.70
2019-04-07T08:09:14.911Z,16.96
2019-04-07T08:11:45.154Z,16.99
2019-04-07T08:14:18.464Z,16.96
2019-04-07T08:16:52.380Z,17.06
2019-04-07T08:19:29.376Z,17.04
2019-04-07T08:22:01.714Z,17.11
2019-04-07T08:24:36.210Z,17.05
2019-04-07T08:27:09.422Z,17.28
2019-04-07T08:29:46.219Z,17.19
2019-04-07T08:32:19.798Z,17.23
2019-04-07T08:34:54.789Z,17.38
2019-04-07T08:37:31.196Z,17.33
2019-04-07T08:40:07.268Z,17.46
2019-04-07T08:42:39.291Z,17.51
2019-04-07T08:45:16.754Z,17.66
2019-04-07T08:47:59.836Z,17.80
2019-04-07T08:50:34.385Z,17.92
2019-04-07T08:53:11.506Z,18.00
2019-04-07T08:55:54.707Z,18.04
2019-04-07T08:58:36.153Z,17.97
2019-04-07T09:01:06.399Z,18.25
2019-04-07T09:03:39.996Z,18.40
2019-04-07T09:06:13.392Z,18.49
2019-04-07T09:08:46.610Z,18.76
2019-04-07T09:11:23.268Z,19.01
2019-04-07T09:13:58.171Z,19.17
2019-04-07T09:16:52.849Z,19.25
2019-04-07T09:19:54.474Z,19.19
2019-04-07T09:23:01.730Z,19.13
2019-04-07T09:26:03.309Z,19.20
2019-04-07T09:28:55.902Z,19.11
2019-04-07T09:31:46.655Z,19.05
2019-04-07T09:34:41.469Z,19.11
2019-04-07T09:37:32.359Z,19.18
2019-04-07T09:40:30.786Z,19.28
2019-04-07T09:43:14.543Z,19.44
2019-04-07T09:46:25.038Z,19.46
2019-04-07T09:49:21.219Z,19.34
2019-04-07T09:52:14.909Z,19.27
2019-04-07T09:55:04.516Z,19.46
2019-04-07T09:57:59.514Z,19.60
2019-04-07T10:01:08.010Z,19.89
2019-04-07T10:04:00.168Z,20.01
2019-04-07T10:06:58.357Z,20.16
2019-04-07T10:10:14.323Z,19.90
2019-04-07T10:13:08.261Z,19.90
2019-04-07T10:15:59.842Z,20.25
2019-04-07T10:18:58.194Z,19.77
2019-04-07T10:22:01.617Z,19.48
2019-04-07T10:24:51.802Z,19.70
2019-04-07T10:27:56.971Z,19.85
2019-04-07T10:30:38.221Z,20.17
2019-04-07T10:33:45.976Z,20.22
2019-04-07T10:36:28.125Z,20.08
2019-04-07T10:39:16.348Z,20.23
2019-04-07T10:42:06.968Z,20.26
2019-04-07T10:45:04.818Z,20.47
2019-04-07T10:47:52.471Z,20.47
2019-04-07T10:50:53.533Z,20.28
2019-04-07T10:53:51.227Z,20.45
2019-04-07T10:56:46.496Z,20.43
2019-04-07T10:59:49.189Z,20.46
2019-04-07T11:02:45.897Z,20.68
2019-04-07T11:05:44.779Z,20.70
2019-04-07T11:08:46.624Z,20.77
2019-04-07T11:11:57.243Z,21.03
2019-04-07T11:14:55.872Z,20.75
2019-04-07T11:17:44.008Z,20.95
2019-04-07T11:20:45.631Z,21.05
2019-04-07T11:23:46.955Z,20.84
2019-04-07T11:26:51.757Z,20.77
2019-04-07T11:29:49.681Z,20.25
2019-04-07T11:32:54.340Z,20.26
2019-04-07T11:35:47.618Z,20.53
2019-04-07T11:38:49.462Z,20.68
2019-04-07T11:41:48.259Z,20.90
2019-04-07T11:44:40.242Z,20.87
2019-04-07T11:47:21.802Z,20.95
2019-04-07T11:50:04.963Z,20.93
2019-04-07T11:52:57.313Z,20.90
2019-04-07T11:55:48.577Z,21.03
2019-04-07T11:58:45.345Z,21.12
2019-04-07T12:01:41.941Z,21.02
2019-04-07T12:04:38.046Z,20.84
2019-04-07T12:07:45.825Z,20.91
2019-04-07T12:10:41.248Z,21.17
2019-04-07T12:13:32.992Z,21.42
2019-04-07T12:16:28.672Z,21.55
2019-04-07T12:19:23.843Z,20.91
2019-04-07T12:22:12.817Z,20.86
2019-04-07T12:24:59.365Z,21.12
2019-04-07T12:28:02.273Z,21.05
2019-04-07T12:31:00.512Z,21.13
2019-04-07T12:33:51.654Z,20.91
2019-04-07T12:36:41.949Z,21.13
2019-04-07T12:39:22.355Z,20.90
2019-04-07T12:42:12.339Z,20.69
2019-04-07T12:45:14.426Z,20.80
2019-04-07T12:48:04.723Z,20.78
2019-04-07T12:50:58.435Z,20.99
2019-04-07T12:53:41.277Z,20.88
2019-04-07T12:56:31.665Z,21.05
2019-04-07T12:59:14.265Z,21.06
2019-04-07T13:01:53.482Z,21.01
2019-04-07T13:04:34.316Z,21.16
2019-04-07T13:07:23.004Z,21.20
2019-04-07T13:10:14.314Z,21.20
2019-04-07T13:13:05.884Z,21.14
2019-04-07T13:16:00.283Z,20.89
2019-04-07T13:18:53.102Z,20.74
2019-04-07T13:21:38.088Z,20.90
2019-04-07T13:24:34.940Z,20.97
2019-04-07T13:27:16.997Z,20.96
2019-04-07T13:30:21.416Z,21.04
2019-04-07T13:33:26.418Z,21.23
2019-04-07T13:36:10.397Z,21.19
2019-04-07T13:38:53.049Z,21.19
2019-04-07T13:41:45.903Z,21.01
2019-04-07T13:44:24.255Z,21.13
2019-04-07T13:47:16.463Z,21.15
2019-04-07T13:50:08.664Z,20.94
2019-04-07T13:53:02.930Z,20.89
2019-04-07T13:55:59.575Z,20.78
2019-04-07T13:58:50.931Z,20.81
2019-04-07T14:01:34.693Z,20.79
2019-04-07T14:04:21.736Z,21.01
2019-04-07T14:07:16.900Z,21.12
2019-04-07T14:10:27.450Z,21.06
2019-04-07T14:13:19.747Z,21.03
2019-04-07T14:16:09.557Z,20.84
2019-04-07T14:19:00.252Z,20.76
2019-04-07T14:21:55.735Z,20.75
2019-04-07T14:24:39.517Z,20.67
2019-04-07T14:27:31.647Z,20.60
2019-04-07T14:30:22.288Z,20.57
2019-04-07T14:33:30.739Z,20.53
2019-04-07T14:36:11.639Z,20.56
2019-04-07T14:38:57.469Z,20.43
2019-04-07T14:42:01.014Z,20.38
2019-04-07T14:44:45.758Z,20.34
2019-04-07T14:47:52.325Z,20.20
2019-04-07T14:50:40.709Z,20.17
2019-04-07T14:53:33.770Z,20.20
2019-04-07T14:56:21.927Z,20.19
2019-04-07T14:59:13.210Z,20.02
2019-04-07T15:01:54.372Z,19.87
2019-04-07T15:04:35.717Z,19.90
2019-04-07T15:07:29.981Z,19.82
2019-04-07T15:10:11.845Z,19.65
2019-04-07T15:12:49.016Z,19.61
2019-04-07T15:15:23.667Z,19.62
2019-04-07T15:17:57.567Z,19.57
2019-04-07T15:20:31.159Z,19.57
2019-04-07T15:23:05.467Z,19.55
2019-04-07T15:25:43.926Z,19.50
2019-04-07T15:28:18.011Z,19.49
2019-04-07T15:30:54.423Z,19.46
2019-04-07T15:33:33.040Z,19.50
2019-04-07T15:36:08.925Z,19.46
2019-04-07T15:38:44.394Z,19.33
2019-04-07T15:41:23.876Z,19.29
2019-04-07T15:44:10.372Z,19.30
2019-04-07T15:46:53.214Z,19.29
2019-04-07T15:49:28.322Z,19.27
2019-04-07T15:52:06.736Z,19.22
2019-04-07T15:54:37.144Z,19.17
2019-04-07T15:57:11.160Z,19.17
2019-04-07T15:59:45.030Z,19.10
2019-04-07T16:02:19.271Z,19.15
2019-04-07T16:04:52.699Z,19.10
2019-04-07T16:07:26.195Z,19.03
2019-04-07T16:09:59.784Z,18.99
2019-04-07T16:12:43.510Z,18.96
2019-04-07T16:15:09.674Z,18.97
2019-04-07T16:17:43.852Z,18.96
2019-04-07T16:20:23.286Z,18.91
2019-04-07T16:22:53.296Z,18.89
2019-04-07T16:25:28.208Z,18.87
2019-04-07T16:28:02.282Z,18.84
2019-04-07T16:30:35.781Z,18.77
2019-04-07T16:33:09.898Z,18.69
2019-04-07T16:35:44.016Z,18.63
2019-04-07T16:38:18.319Z,18.58
2019-04-07T16:40:51.559Z,18.54
2019-04-07T16:43:24.813Z,18.54
2019-04-07T16:45:58.307Z,18.50
2019-04-07T16:48:36.012Z,18.48
2019-04-07T16:51:09.178Z,18.46
2019-04-07T16:53:44.407Z,18.42
2019-04-07T16:56:20.113Z,18.38
2019-04-07T16:58:53.398Z,18.34
2019-04-07T17:01:27.848Z,18.24
2019-04-07T17:04:01.273Z,18.18
2019-04-07T17:06:35.989Z,18.13
2019-04-07T17:09:23.093Z,18.09
2019-04-07T17:11:53.654Z,18.06
2019-04-07T17:14:32.145Z,17.97
2019-04-07T17:17:04.673Z,17.87
2019-04-07T17:19:38.430Z,17.80
2019-04-07T17:22:13.244Z,17.75
2019-04-07T17:24:47.719Z,17.67
2019-04-07T17:27:21.059Z,17.59
2019-04-07T17:29:55.395Z,17.54
2019-04-07T17:32:33.161Z,17.47
2019-04-07T17:35:03.890Z,17.38
2019-04-07T17:37:37.460Z,17.31
2019-04-07T17:40:17.188Z,17.16
2019-04-07T17:42:52.805Z,17.22
2019-04-07T17:45:44.080Z,17.15
2019-04-07T17:48:40.365Z,17.11
2019-04-07T17:51:19.807Z,17.02
2019-04-07T17:54:12.231Z,16.98
2019-04-07T17:57:10.011Z,16.90
2019-04-07T18:00:08.604Z,16.77
2019-04-07T18:03:04.566Z,16.69
2019-04-07T18:05:49.681Z,16.66
2019-04-07T18:08:45.957Z,16.57
2019-04-07T18:11:54.370Z,16.47
2019-04-07T18:14:45.883Z,16.41
2019-04-07T18:17:44.630Z,16.36
2019-04-07T18:20:29.385Z,16.28
2019-04-07T18:23:21.451Z,16.20
2019-04-07T18:26:15.612Z,16.16
2019-04-07T18:29:06.935Z,16.11
2019-04-07T18:31:59.002Z,16.08
2019-04-07T18:34:51.678Z,16.06
2019-04-07T18:37:44.306Z,16.02
2019-04-07T18:40:35.475Z,16.03
2019-04-07T18:43:20.522Z,15.84
2019-04-07T18:46:11.867Z,15.65
2019-04-07T18:48:59.111Z,15.50
2019-04-07T18:51:51.768Z,15.28
2019-04-07T18:54:42.578Z,15.23
2019-04-07T18:57:40.066Z,15.23
2019-04-07T19:00:35.479Z,15.24
2019-04-07T19:03:27.673Z,15.25
2019-04-07T19:06:10.511Z,15.20
2019-04-07T19:09:10.134Z,15.15
2019-04-07T19:12:04.281Z,15.11
2019-04-07T19:15:02.280Z,14.98
2019-04-07T19:17:42.034Z,14.90
2019-04-07T19:20:36.069Z,14.84
2019-04-07T19:23:32.681Z,14.78
2019-04-07T19:26:27.819Z,14.42
2019-04-07T19:29:12.820Z,14.20
2019-04-07T19:32:17.958Z,14.19
2019-04-07T19:35:09.488Z,14.03
2019-04-07T19:37:54.399Z,14.02
2019-04-07T19:40:47.107Z,13.98
2019-04-07T19:43:36.146Z,13.91
2019-04-07T19:46:34.055Z,13.89
2019-04-07T19:49:29.820Z,13.92
2019-04-07T19:52:36.900Z,13.91
2019-04-07T19:55:28.587Z,13.83
2019-04-07T19:58:23.885Z,13.80
2019-04-07T20:01:15.689Z,13.76
2019-04-07T20:04:12.846Z,13.65
2019-04-07T20:07:09.200Z,13.61
2019-04-07T20:10:01.077Z,13.53
2019-04-07T20:13:00.445Z,13.48
2019-04-07T20:15:57.708Z,13.31
2019-04-07T20:18:49.556Z,13.20
2019-04-07T20:21:39.843Z,13.15
2019-04-07T20:24:41.188Z,13.03
2019-04-07T20:27:42.799Z,13.01
2019-04-07T20:30:30.962Z,12.99
2019-04-07T20:33:16.345Z,13.00
2019-04-07T20:36:05.404Z,12.98
2019-04-07T20:38:58.446Z,12.94
2019-04-07T20:42:08.747Z,12.89
2019-04-07T20:45:06.637Z,12.78
2019-04-07T20:47:51.384Z,12.75
2019-04-07T20:50:45.741Z,12.67
2019-04-07T20:53:28.307Z,12.58
2019-04-07T20:56:35.446Z,12.45
2019-04-07T20:59:31.424Z,12.43
2019-04-07T21:02:25.149Z,12.32
2019-04-07T21:05:08.803Z,12.26
2019-04-07T21:08:04.079Z,12.23
2019-04-07T21:10:56.171Z,12.22
2019-04-07T21:13:57.389Z,12.13
2019-04-07T21:16:57.893Z,12.06
2019-04-07T21:19:45.426Z,11.88
2019-04-07T21:22:25.304Z,11.76
2019-04-07T21:25:25.195Z,11.74
2019-04-07T21:28:05.157Z,11.66
2019-04-07T21:30:46.306Z,11.62
2019-04-07T21:33:50.787Z,11.59
2019-04-07T21:36:32.216Z,11.56
2019-04-07T21:39:36.377Z,11.49
2019-04-07T21:42:48.287Z,11.52
2019-04-07T21:45:45.874Z,11.55
2019-04-07T21:48:45.435Z,11.49
2019-04-07T21:51:41.050Z,11.52
2019-04-07T21:54:23.968Z,11.45
2019-04-07T21:57:15.901Z,11.17
2019-04-07T22:00:07.906Z,10.97
2019-04-07T22:03:01.321Z,10.81
2019-04-07T22:05:51.066Z,10.80
2019-04-07T22:08:29.076Z,10.84
2019-04-07T22:11:02.196Z,10.83
2019-04-07T22:13:36.731Z,10.87
2019-04-07T22:16:10.309Z,10.82
2019-04-07T22:18:43.563Z,10.81
2019-04-07T22:21:17.040Z,10.85
2019-04-07T22:23:50.709Z,10.77
2019-04-07T22:26:23.906Z,10.69
2019-04-07T22:29:01.255Z,10.64
2019-04-07T22:31:46.125Z,10.63
2019-04-07T22:34:19.143Z,10.40
2019-04-07T22:36:52.320Z,10.36
2019-04-07T22:39:28.840Z,10.23
2019-04-07T22:42:00.836Z,10.29
2019-04-07T22:44:34.501Z,10.23
2019-04-07T22:47:07.865Z,10.13
2019-04-07T22:49:41.606Z,10.04
2019-04-07T22:52:17.440Z,10.01
2019-04-07T22:54:50.101Z,9.96
2019-04-07T22:57:23.454Z,9.85
2019-04-07T22:59:56.892Z,9.91
2019-04-07T23:02:30.310Z,9.90
2019-04-07T23:05:03.703Z,9.83
2019-04-07T23:07:37.489Z,9.74
2019-04-07T23:10:11.258Z,9.71
2019-04-07T23:12:44.759Z,9.61
2019-04-07T23:15:18.736Z,9.70
2019-04-07T23:17:51.946Z,9.73
2019-04-07T23:20:26.887Z,9.69
2019-04-07T23:23:00.483Z,9.74
2019-04-07T23:25:34.358Z,9.73
2019-04-07T23:28:08.188Z,9.72
2019-04-07T23:30:41.518Z,9.70
2019-04-07T23:33:14.711Z,9.65
2019-04-07T23:35:47.786Z,9.35
2019-04-07T23:38:21.861Z,9.32
2019-04-07T23:40:55.600Z,9.23
2019-04-07T23:43:29.172Z,9.12
2019-04-07T23:46:02.438Z,8.98
2019-04-07T23:48:35.596Z,9.05
2019-04-07T23:51:08.745Z,9.06
2019-04-07T23:54:11.226Z,8.95
2019-04-07T23:56:45.506Z,8.89
2019-04-07T23:59:18.748Z,8.92
